sensor_id;sensor_type;location;lat;lon;timestamp;temperature;humidity
18597;DHT22;9428;50.950;6.912;2022-09-20T00:02:31;13.70;99.90
18597;DHT22;9428;50.950;6.912;2022-09-20T00:05:19;12.50;99.90
18597;DHT22;9428;50.950;6.912;2022-09-20T00:08:08;12.80;99.90
18597;DHT22;9428;50.950;6.912;2022-09-20T00:10:58;13.20;99.90
18597;DHT22;9428;50.950;6.912;2022-09-20T00:13:47;12.50;99.90
18597;DHT22;9428;50.950;6.912;2022-09-20T00:16:37;12.60;99.90
18597;DHT22;9428;50.950;6.912;2022-09-20T00:19:28;13.00;99.90
18597;DHT22;9428;50.950;6.912;2022-09-20T00:22:15;13.10;99.90
18597;DHT22;9428;50.950;6.912;2022-09-20T00:25:03;12.40;99.90
18597;DHT22;9428;50.950;6.912;2022-09-20T00:27:50;12.50;99.90
18597;DHT22;9428;50.950;6.912;2022-09-20T00:30:37;12.50;99.90
18597;DHT22;9428;50.950;6.912;2022-09-20T00:33:26;13.20;99.90
18597;DHT22;9428;50.950;6.912;2022-09-20T00:36:35;12.40;99.90
18597;DHT22;9428;50.950;6.912;2022-09-20T00:39:22;12.40;99.90
18597;DHT22;9428;50.950;6.912;2022-09-20T00:42:13;12.60;99.90
18597;DHT22;9428;50.950;6.912;2022-09-20T00:45:02;13.20;99.90
18597;DHT22;9428;50.950;6.912;2022-09-20T00:47:55;12.60;99.90
18597;DHT22;9428;50.950;6.912;2022-09-20T00:50:46;13.00;99.90
18597;DHT22;9428;50.950;6.912;2022-09-20T00:53:38;12.60;99.90
18597;DHT22;9428;50.950;6.912;2022-09-20T00:56:28;13.40;99.90
18597;DHT22;9428;50.950;6.912;2022-09-20T00:59:21;12.60;99.90
18597;DHT22;9428;50.950;6.912;2022-09-20T01:02:13;13.60;99.90
18597;DHT22;9428;50.950;6.912;2022-09-20T01:05:02;13.10;99.90
18597;DHT22;9428;50.950;6.912;2022-09-20T01:07:50;12.60;99.90
18597;DHT22;9428;50.950;6.912;2022-09-20T01:10:39;12.90;99.90
18597;DHT22;9428;50.950;6.912;2022-09-20T01:13:27;12.60;99.90
18597;DHT22;9428;50.950;6.912;2022-09-20T01:16:16;12.80;99.90
18597;DHT22;9428;50.950;6.912;2022-09-20T01:19:12;12.60;99.90
18597;DHT22;9428;50.950;6.912;2022-09-20T01:22:07;13.20;99.90
18597;DHT22;9428;50.950;6.912;2022-09-20T01:25:03;12.60;99.90
18597;DHT22;9428;50.950;6.912;2022-09-20T01:27:54;12.70;99.90
18597;DHT22;9428;50.950;6.912;2022-09-20T01:30:44;12.70;99.90
18597;DHT22;9428;50.950;6.912;2022-09-20T01:33:40;13.00;99.90
18597;DHT22;9428;50.950;6.912;2022-09-20T01:36:33;12.70;99.90
18597;DHT22;9428;50.950;6.912;2022-09-20T01:39:29;12.60;99.90
18597;DHT22;9428;50.950;6.912;2022-09-20T01:42:23;12.70;99.90
18597;DHT22;9428;50.950;6.912;2022-09-20T01:45:17;12.80;99.90
18597;DHT22;9428;50.950;6.912;2022-09-20T01:48:12;12.70;99.90
18597;DHT22;9428;50.950;6.912;2022-09-20T01:54:48;12.70;99.90
18597;DHT22;9428;50.950;6.912;2022-09-20T01:58:05;12.70;99.90
18597;DHT22;9428;50.950;6.912;2022-09-20T02:01:18;12.90;99.90
18597;DHT22;9428;50.950;6.912;2022-09-20T02:04:20;12.70;99.90
18597;DHT22;9428;50.950;6.912;2022-09-20T02:07:35;12.70;99.90
18597;DHT22;9428;50.950;6.912;2022-09-20T02:10:52;12.80;99.90
18597;DHT22;9428;50.950;6.912;2022-09-20T02:14:04;12.70;99.90
18597;DHT22;9428;50.950;6.912;2022-09-20T02:17:05;12.70;99.90
18597;DHT22;9428;50.950;6.912;2022-09-20T02:20:10;12.70;99.90
18597;DHT22;9428;50.950;6.912;2022-09-20T02:23:11;12.70;99.90
18597;DHT22;9428;50.950;6.912;2022-09-20T02:26:11;12.70;99.90
18597;DHT22;9428;50.950;6.912;2022-09-20T02:29:09;12.60;99.90
18597;DHT22;9428;50.950;6.912;2022-09-20T02:32:22;12.60;99.90
18597;DHT22;9428;50.950;6.912;2022-09-20T02:35:29;12.60;99.90
18597;DHT22;9428;50.950;6.912;2022-09-20T02:38:32;12.70;99.90
18597;DHT22;9428;50.950;6.912;2022-09-20T02:44:46;12.80;99.90
18597;DHT22;9428;50.950;6.912;2022-09-20T02:47:37;12.70;99.90
18597;DHT22;9428;50.950;6.912;2022-09-20T02:50:30;12.70;99.90
18597;DHT22;9428;50.950;6.912;2022-09-20T02:53:31;12.60;99.90
18597;DHT22;9428;50.950;6.912;2022-09-20T02:56:33;12.60;99.90
18597;DHT22;9428;50.950;6.912;2022-09-20T02:59:28;12.70;99.90
18597;DHT22;9428;50.950;6.912;2022-09-20T03:02:23;13.60;99.90
18597;DHT22;9428;50.950;6.912;2022-09-20T03:05:18;12.70;99.90
18597;DHT22;9428;50.950;6.912;2022-09-20T03:08:28;12.70;99.90
18597;DHT22;9428;50.950;6.912;2022-09-20T03:11:26;12.70;99.90
18597;DHT22;9428;50.950;6.912;2022-09-20T03:14:18;12.60;99.90
18597;DHT22;9428;50.950;6.912;2022-09-20T03:17:16;13.00;99.90
18597;DHT22;9428;50.950;6.912;2022-09-20T03:20:18;12.70;99.90
18597;DHT22;9428;50.950;6.912;2022-09-20T03:23:13;12.70;99.90
18597;DHT22;9428;50.950;6.912;2022-09-20T03:26:17;12.90;99.90
18597;DHT22;9428;50.950;6.912;2022-09-20T03:29:14;12.70;99.90
18597;DHT22;9428;50.950;6.912;2022-09-20T03:32:11;13.00;99.90
18597;DHT22;9428;50.950;6.912;2022-09-20T03:35:18;12.60;99.90
18597;DHT22;9428;50.950;6.912;2022-09-20T03:38:30;13.30;99.90
18597;DHT22;9428;50.950;6.912;2022-09-20T03:41:39;12.60;99.90
18597;DHT22;9428;50.950;6.912;2022-09-20T03:44:48;13.10;99.90
18597;DHT22;9428;50.950;6.912;2022-09-20T03:47:52;12.70;99.90
18597;DHT22;9428;50.950;6.912;2022-09-20T03:50:59;13.40;99.90
18597;DHT22;9428;50.950;6.912;2022-09-20T03:54:17;12.40;99.90
18597;DHT22;9428;50.950;6.912;2022-09-20T04:00:23;12.70;99.90
18597;DHT22;9428;50.950;6.912;2022-09-20T04:03:26;12.70;99.90
18597;DHT22;9428;50.950;6.912;2022-09-20T04:06:43;12.60;99.90
18597;DHT22;9428;50.950;6.912;2022-09-20T04:09:47;12.70;99.90
18597;DHT22;9428;50.950;6.912;2022-09-20T04:12:44;12.70;99.90
18597;DHT22;9428;50.950;6.912;2022-09-20T04:15:40;12.70;99.90
18597;DHT22;9428;50.950;6.912;2022-09-20T04:18:34;13.30;99.90
18597;DHT22;9428;50.950;6.912;2022-09-20T04:21:29;12.60;99.90
18597;DHT22;9428;50.950;6.912;2022-09-20T04:24:23;12.70;99.90
18597;DHT22;9428;50.950;6.912;2022-09-20T04:27:18;12.60;99.90
18597;DHT22;9428;50.950;6.912;2022-09-20T04:30:16;12.50;99.90
18597;DHT22;9428;50.950;6.912;2022-09-20T04:33:13;12.60;99.90
18597;DHT22;9428;50.950;6.912;2022-09-20T04:36:11;12.60;99.90
18597;DHT22;9428;50.950;6.912;2022-09-20T04:39:25;12.60;99.90
18597;DHT22;9428;50.950;6.912;2022-09-20T04:46:08;12.70;99.90
18597;DHT22;9428;50.950;6.912;2022-09-20T04:53:02;12.60;99.90
18597;DHT22;9428;50.950;6.912;2022-09-20T04:55:59;12.60;99.90
18597;DHT22;9428;50.950;6.912;2022-09-20T04:58:48;12.60;99.90
18597;DHT22;9428;50.950;6.912;2022-09-20T05:02:26;12.50;99.90
18597;DHT22;9428;50.950;6.912;2022-09-20T05:12:43;12.50;99.90
18597;DHT22;9428;50.950;6.912;2022-09-20T05:15:42;12.50;99.90
18597;DHT22;9428;50.950;6.912;2022-09-20T05:19:02;12.60;99.90
18597;DHT22;9428;50.950;6.912;2022-09-20T05:22:23;12.60;99.90
18597;DHT22;9428;50.950;6.912;2022-09-20T05:28:45;12.50;99.90
18597;DHT22;9428;50.950;6.912;2022-09-20T05:31:38;12.90;99.90
18597;DHT22;9428;50.950;6.912;2022-09-20T05:34:34;12.60;99.90
18597;DHT22;9428;50.950;6.912;2022-09-20T05:37:36;12.50;99.90
18597;DHT22;9428;50.950;6.912;2022-09-20T05:40:30;12.50;99.90
18597;DHT22;9428;50.950;6.912;2022-09-20T05:43:23;12.60;99.90
18597;DHT22;9428;50.950;6.912;2022-09-20T05:46:25;12.60;99.90
18597;DHT22;9428;50.950;6.912;2022-09-20T05:49:30;13.40;99.90
18597;DHT22;9428;50.950;6.912;2022-09-20T05:52:37;12.60;99.90
18597;DHT22;9428;50.950;6.912;2022-09-20T05:55:35;12.70;99.90
18597;DHT22;9428;50.950;6.912;2022-09-20T05:58:38;12.60;99.90
18597;DHT22;9428;50.950;6.912;2022-09-20T06:01:35;13.50;99.90
18597;DHT22;9428;50.950;6.912;2022-09-20T06:04:29;12.60;99.90
18597;DHT22;9428;50.950;6.912;2022-09-20T06:07:28;12.70;99.90
18597;DHT22;9428;50.950;6.912;2022-09-20T06:10:41;12.80;99.90
18597;DHT22;9428;50.950;6.912;2022-09-20T06:13:56;12.60;99.90
18597;DHT22;9428;50.950;6.912;2022-09-20T06:16:57;12.70;99.90
18597;DHT22;9428;50.950;6.912;2022-09-20T06:19:48;12.80;99.90
18597;DHT22;9428;50.950;6.912;2022-09-20T06:22:41;12.80;99.90
18597;DHT22;9428;50.950;6.912;2022-09-20T06:25:36;12.80;99.90
18597;DHT22;9428;50.950;6.912;2022-09-20T06:28:28;13.20;99.90
18597;DHT22;9428;50.950;6.912;2022-09-20T06:31:18;12.80;99.90
18597;DHT22;9428;50.950;6.912;2022-09-20T06:34:12;12.80;99.90
18597;DHT22;9428;50.950;6.912;2022-09-20T06:37:13;12.80;99.90
18597;DHT22;9428;50.950;6.912;2022-09-20T06:40:31;12.80;99.90
18597;DHT22;9428;50.950;6.912;2022-09-20T06:43:36;13.00;99.90
18597;DHT22;9428;50.950;6.912;2022-09-20T06:46:27;13.10;99.90
18597;DHT22;9428;50.950;6.912;2022-09-20T06:49:16;12.80;99.90
18597;DHT22;9428;50.950;6.912;2022-09-20T06:52:04;13.00;99.90
18597;DHT22;9428;50.950;6.912;2022-09-20T06:54:53;12.80;99.90
18597;DHT22;9428;50.950;6.912;2022-09-20T06:57:41;13.30;99.90
18597;DHT22;9428;50.950;6.912;2022-09-20T07:00:29;12.80;99.90
18597;DHT22;9428;50.950;6.912;2022-09-20T07:03:16;12.70;99.90
18597;DHT22;9428;50.950;6.912;2022-09-20T07:06:06;12.70;99.90
18597;DHT22;9428;50.950;6.912;2022-09-20T07:08:54;12.90;99.90
18597;DHT22;9428;50.950;6.912;2022-09-20T07:11:42;13.10;99.90
18597;DHT22;9428;50.950;6.912;2022-09-20T07:14:31;13.20;99.90
18597;DHT22;9428;50.950;6.912;2022-09-20T07:17:19;13.20;99.90
18597;DHT22;9428;50.950;6.912;2022-09-20T07:20:07;13.70;99.90
18597;DHT22;9428;50.950;6.912;2022-09-20T07:22:56;13.30;99.90
18597;DHT22;9428;50.950;6.912;2022-09-20T07:25:44;13.30;99.90
18597;DHT22;9428;50.950;6.912;2022-09-20T07:28:32;13.40;99.90
18597;DHT22;9428;50.950;6.912;2022-09-20T07:31:21;13.30;99.90
18597;DHT22;9428;50.950;6.912;2022-09-20T07:34:09;13.30;99.90
18597;DHT22;9428;50.950;6.912;2022-09-20T07:36:56;13.20;99.90
18597;DHT22;9428;50.950;6.912;2022-09-20T07:39:46;13.00;99.90
18597;DHT22;9428;50.950;6.912;2022-09-20T07:42:34;13.50;99.90
18597;DHT22;9428;50.950;6.912;2022-09-20T07:45:21;13.20;99.90
18597;DHT22;9428;50.950;6.912;2022-09-20T07:48:09;13.30;99.90
18597;DHT22;9428;50.950;6.912;2022-09-20T07:50:58;13.30;99.90
18597;DHT22;9428;50.950;6.912;2022-09-20T07:53:47;13.30;99.90
18597;DHT22;9428;50.950;6.912;2022-09-20T07:56:36;13.60;99.90
18597;DHT22;9428;50.950;6.912;2022-09-20T07:59:24;13.90;99.90
18597;DHT22;9428;50.950;6.912;2022-09-20T08:02:15;14.00;99.90
18597;DHT22;9428;50.950;6.912;2022-09-20T08:05:03;14.00;99.90
18597;DHT22;9428;50.950;6.912;2022-09-20T08:07:51;14.00;99.90
18597;DHT22;9428;50.950;6.912;2022-09-20T08:10:39;14.50;99.90
18597;DHT22;9428;50.950;6.912;2022-09-20T08:13:34;14.00;99.90
18597;DHT22;9428;50.950;6.912;2022-09-20T08:16:24;13.90;99.90
18597;DHT22;9428;50.950;6.912;2022-09-20T08:19:14;13.80;99.90
18597;DHT22;9428;50.950;6.912;2022-09-20T08:22:02;13.70;99.90
18597;DHT22;9428;50.950;6.912;2022-09-20T08:24:50;13.70;99.90
18597;DHT22;9428;50.950;6.912;2022-09-20T08:27:38;13.80;99.90
18597;DHT22;9428;50.950;6.912;2022-09-20T08:30:26;13.80;99.90
18597;DHT22;9428;50.950;6.912;2022-09-20T08:33:14;13.90;99.90
18597;DHT22;9428;50.950;6.912;2022-09-20T08:36:02;13.90;99.90
18597;DHT22;9428;50.950;6.912;2022-09-20T08:38:50;14.10;99.90
18597;DHT22;9428;50.950;6.912;2022-09-20T08:41:41;15.20;99.90
18597;DHT22;9428;50.950;6.912;2022-09-20T08:44:32;14.30;99.90
18597;DHT22;9428;50.950;6.912;2022-09-20T08:47:26;14.30;99.90
18597;DHT22;9428;50.950;6.912;2022-09-20T08:50:14;14.20;99.90
18597;DHT22;9428;50.950;6.912;2022-09-20T08:53:02;14.20;99.90
18597;DHT22;9428;50.950;6.912;2022-09-20T08:55:50;14.20;99.90
18597;DHT22;9428;50.950;6.912;2022-09-20T08:58:37;14.90;99.90
18597;DHT22;9428;50.950;6.912;2022-09-20T09:01:27;14.30;99.90
18597;DHT22;9428;50.950;6.912;2022-09-20T09:04:24;14.40;99.90
18597;DHT22;9428;50.950;6.912;2022-09-20T09:07:18;14.50;99.90
18597;DHT22;9428;50.950;6.912;2022-09-20T09:10:08;14.50;99.90
18597;DHT22;9428;50.950;6.912;2022-09-20T09:12:59;14.40;99.90
18597;DHT22;9428;50.950;6.912;2022-09-20T09:15:52;14.60;99.90
18597;DHT22;9428;50.950;6.912;2022-09-20T09:18:42;14.60;99.90
18597;DHT22;9428;50.950;6.912;2022-09-20T09:21:33;14.60;99.90
18597;DHT22;9428;50.950;6.912;2022-09-20T09:24:20;14.70;99.90
18597;DHT22;9428;50.950;6.912;2022-09-20T09:27:14;15.30;99.90
18597;DHT22;9428;50.950;6.912;2022-09-20T09:30:19;14.40;99.90
18597;DHT22;9428;50.950;6.912;2022-09-20T09:33:21;14.50;99.90
18597;DHT22;9428;50.950;6.912;2022-09-20T09:36:14;14.50;99.90
18597;DHT22;9428;50.950;6.912;2022-09-20T09:39:24;14.60;99.90
18597;DHT22;9428;50.950;6.912;2022-09-20T09:42:19;14.80;99.90
18597;DHT22;9428;50.950;6.912;2022-09-20T09:45:19;15.00;99.90
18597;DHT22;9428;50.950;6.912;2022-09-20T09:48:18;14.90;99.90
18597;DHT22;9428;50.950;6.912;2022-09-20T09:51:09;14.80;99.90
18597;DHT22;9428;50.950;6.912;2022-09-20T09:53:58;14.70;99.90
18597;DHT22;9428;50.950;6.912;2022-09-20T09:56:57;14.70;99.90
18597;DHT22;9428;50.950;6.912;2022-09-20T10:00:03;14.80;99.90
18597;DHT22;9428;50.950;6.912;2022-09-20T10:03:16;14.80;99.90
18597;DHT22;9428;50.950;6.912;2022-09-20T10:06:16;14.70;99.90
18597;DHT22;9428;50.950;6.912;2022-09-20T10:12:47;14.60;99.90
18597;DHT22;9428;50.950;6.912;2022-09-20T10:15:42;14.60;99.90
18597;DHT22;9428;50.950;6.912;2022-09-20T10:18:39;14.60;99.90
18597;DHT22;9428;50.950;6.912;2022-09-20T10:21:38;14.60;99.90
18597;DHT22;9428;50.950;6.912;2022-09-20T10:24:40;14.60;99.90
18597;DHT22;9428;50.950;6.912;2022-09-20T10:27:50;14.70;99.90
18597;DHT22;9428;50.950;6.912;2022-09-20T10:30:46;14.90;99.90
18597;DHT22;9428;50.950;6.912;2022-09-20T10:33:49;15.10;99.90
18597;DHT22;9428;50.950;6.912;2022-09-20T10:36:45;15.20;99.90
18597;DHT22;9428;50.950;6.912;2022-09-20T10:39:37;15.20;99.90
18597;DHT22;9428;50.950;6.912;2022-09-20T10:42:36;15.20;99.90
18597;DHT22;9428;50.950;6.912;2022-09-20T10:45:54;15.30;99.90
18597;DHT22;9428;50.950;6.912;2022-09-20T10:48:46;15.40;99.90
18597;DHT22;9428;50.950;6.912;2022-09-20T10:51:42;15.40;99.90
18597;DHT22;9428;50.950;6.912;2022-09-20T10:54:41;15.40;99.90
18597;DHT22;9428;50.950;6.912;2022-09-20T10:58:15;15.60;99.90
18597;DHT22;9428;50.950;6.912;2022-09-20T11:01:16;15.50;99.90
18597;DHT22;9428;50.950;6.912;2022-09-20T11:07:32;15.20;99.90
18597;DHT22;9428;50.950;6.912;2022-09-20T11:10:29;15.20;99.90
18597;DHT22;9428;50.950;6.912;2022-09-20T11:13:26;15.50;99.90
18597;DHT22;9428;50.950;6.912;2022-09-20T11:16:24;15.90;99.90
18597;DHT22;9428;50.950;6.912;2022-09-20T11:19:21;15.00;99.90
18597;DHT22;9428;50.950;6.912;2022-09-20T11:22:15;14.90;99.90
18597;DHT22;9428;50.950;6.912;2022-09-20T11:25:11;14.90;99.90
18597;DHT22;9428;50.950;6.912;2022-09-20T11:28:03;15.40;99.90
18597;DHT22;9428;50.950;6.912;2022-09-20T11:31:00;14.90;99.90
18597;DHT22;9428;50.950;6.912;2022-09-20T11:33:54;14.80;99.90
18597;DHT22;9428;50.950;6.912;2022-09-20T11:36:46;14.60;99.90
18597;DHT22;9428;50.950;6.912;2022-09-20T11:39:41;14.40;99.90
18597;DHT22;9428;50.950;6.912;2022-09-20T11:42:34;14.30;99.90
18597;DHT22;9428;50.950;6.912;2022-09-20T11:45:22;14.90;99.90
18597;DHT22;9428;50.950;6.912;2022-09-20T11:48:20;14.00;99.90
18597;DHT22;9428;50.950;6.912;2022-09-20T11:58:18;14.10;99.90
18597;DHT22;9428;50.950;6.912;2022-09-20T12:01:11;14.10;99.90
18597;DHT22;9428;50.950;6.912;2022-09-20T12:04:10;14.20;99.90
18597;DHT22;9428;50.950;6.912;2022-09-20T12:07:02;14.80;99.90
18597;DHT22;9428;50.950;6.912;2022-09-20T12:09:54;14.50;99.90
18597;DHT22;9428;50.950;6.912;2022-09-20T12:12:45;14.40;99.90
18597;DHT22;9428;50.950;6.912;2022-09-20T12:15:34;14.40;99.90
18597;DHT22;9428;50.950;6.912;2022-09-20T12:22:27;14.70;99.90
18597;DHT22;9428;50.950;6.912;2022-09-20T12:25:57;14.50;99.90
18597;DHT22;9428;50.950;6.912;2022-09-20T12:28:46;14.90;99.90
18597;DHT22;9428;50.950;6.912;2022-09-20T12:31:38;14.40;99.90
18597;DHT22;9428;50.950;6.912;2022-09-20T12:34:34;14.40;99.90
18597;DHT22;9428;50.950;6.912;2022-09-20T12:37:23;14.40;99.90
18597;DHT22;9428;50.950;6.912;2022-09-20T12:40:15;15.30;99.90
18597;DHT22;9428;50.950;6.912;2022-09-20T12:43:04;14.70;99.90
18597;DHT22;9428;50.950;6.912;2022-09-20T12:45:52;14.80;99.90
18597;DHT22;9428;50.950;6.912;2022-09-20T12:48:41;15.30;99.90
18597;DHT22;9428;50.950;6.912;2022-09-20T12:51:32;15.00;99.90
18597;DHT22;9428;50.950;6.912;2022-09-20T12:54:49;15.10;99.90
18597;DHT22;9428;50.950;6.912;2022-09-20T12:57:39;15.20;99.90
18597;DHT22;9428;50.950;6.912;2022-09-20T13:00:32;15.50;99.90
18597;DHT22;9428;50.950;6.912;2022-09-20T13:03:26;15.50;99.90
18597;DHT22;9428;50.950;6.912;2022-09-20T13:06:24;15.60;99.90
18597;DHT22;9428;50.950;6.912;2022-09-20T13:09:11;15.70;99.90
18597;DHT22;9428;50.950;6.912;2022-09-20T13:12:00;15.70;99.90
18597;DHT22;9428;50.950;6.912;2022-09-20T13:14:50;15.80;99.90
18597;DHT22;9428;50.950;6.912;2022-09-20T13:17:40;15.80;99.90
18597;DHT22;9428;50.950;6.912;2022-09-20T13:20:29;15.50;99.90
18597;DHT22;9428;50.950;6.912;2022-09-20T13:23:24;15.40;99.90
18597;DHT22;9428;50.950;6.912;2022-09-20T13:26:13;15.30;99.90
18597;DHT22;9428;50.950;6.912;2022-09-20T13:29:01;15.30;99.90
18597;DHT22;9428;50.950;6.912;2022-09-20T13:31:51;15.20;99.90
18597;DHT22;9428;50.950;6.912;2022-09-20T13:34:38;15.10;99.90
18597;DHT22;9428;50.950;6.912;2022-09-20T13:37:26;15.10;99.90
18597;DHT22;9428;50.950;6.912;2022-09-20T13:40:16;15.20;99.90
18597;DHT22;9428;50.950;6.912;2022-09-20T13:43:06;15.20;99.90
18597;DHT22;9428;50.950;6.912;2022-09-20T13:46:07;15.90;99.90
18597;DHT22;9428;50.950;6.912;2022-09-20T13:49:11;15.30;99.90
18597;DHT22;9428;50.950;6.912;2022-09-20T13:52:14;15.40;99.90
18597;DHT22;9428;50.950;6.912;2022-09-20T13:55:19;15.20;99.90
18597;DHT22;9428;50.950;6.912;2022-09-20T13:58:16;15.10;99.90
18597;DHT22;9428;50.950;6.912;2022-09-20T14:01:06;15.00;99.90
18597;DHT22;9428;50.950;6.912;2022-09-20T14:04:07;15.00;99.90
18597;DHT22;9428;50.950;6.912;2022-09-20T14:06:59;15.00;99.90
18597;DHT22;9428;50.950;6.912;2022-09-20T14:09:47;14.80;99.90
18597;DHT22;9428;50.950;6.912;2022-09-20T14:12:36;15.00;99.90
18597;DHT22;9428;50.950;6.912;2022-09-20T14:15:25;14.80;99.90
18597;DHT22;9428;50.950;6.912;2022-09-20T14:18:16;15.00;99.90
18597;DHT22;9428;50.950;6.912;2022-09-20T14:21:06;14.80;99.90
18597;DHT22;9428;50.950;6.912;2022-09-20T14:23:56;14.70;99.90
18597;DHT22;9428;50.950;6.912;2022-09-20T14:27:00;14.70;99.90
18597;DHT22;9428;50.950;6.912;2022-09-20T14:29:49;14.70;99.90
18597;DHT22;9428;50.950;6.912;2022-09-20T14:32:38;14.70;99.90
18597;DHT22;9428;50.950;6.912;2022-09-20T14:35:30;14.70;99.90
18597;DHT22;9428;50.950;6.912;2022-09-20T14:38:23;14.80;99.90
18597;DHT22;9428;50.950;6.912;2022-09-20T14:41:11;14.60;99.90
18597;DHT22;9428;50.950;6.912;2022-09-20T14:44:00;14.80;99.90
18597;DHT22;9428;50.950;6.912;2022-09-20T14:46:48;14.70;99.90
18597;DHT22;9428;50.950;6.912;2022-09-20T14:49:39;15.50;99.90
18597;DHT22;9428;50.950;6.912;2022-09-20T14:52:36;15.20;99.90
18597;DHT22;9428;50.950;6.912;2022-09-20T14:55:25;14.90;99.90
18597;DHT22;9428;50.950;6.912;2022-09-20T14:58:15;15.00;99.90
18597;DHT22;9428;50.950;6.912;2022-09-20T15:01:05;15.10;99.90
18597;DHT22;9428;50.950;6.912;2022-09-20T15:04:06;15.20;99.90
18597;DHT22;9428;50.950;6.912;2022-09-20T15:06:55;15.10;99.90
18597;DHT22;9428;50.950;6.912;2022-09-20T15:09:42;15.10;99.90
18597;DHT22;9428;50.950;6.912;2022-09-20T15:12:31;15.10;99.90
18597;DHT22;9428;50.950;6.912;2022-09-20T15:15:18;15.20;99.90
18597;DHT22;9428;50.950;6.912;2022-09-20T15:18:15;15.20;99.90
18597;DHT22;9428;50.950;6.912;2022-09-20T15:21:04;15.30;99.90
18597;DHT22;9428;50.950;6.912;2022-09-20T15:23:52;15.40;99.90
18597;DHT22;9428;50.950;6.912;2022-09-20T15:26:39;15.50;99.90
18597;DHT22;9428;50.950;6.912;2022-09-20T15:29:28;16.00;99.90
18597;DHT22;9428;50.950;6.912;2022-09-20T15:32:15;15.50;99.90
18597;DHT22;9428;50.950;6.912;2022-09-20T15:35:03;15.40;99.90
18597;DHT22;9428;50.950;6.912;2022-09-20T15:37:50;15.30;99.90
18597;DHT22;9428;50.950;6.912;2022-09-20T15:40:38;15.30;99.90
18597;DHT22;9428;50.950;6.912;2022-09-20T15:43:26;15.30;99.90
18597;DHT22;9428;50.950;6.912;2022-09-20T15:46:20;15.30;99.90
18597;DHT22;9428;50.950;6.912;2022-09-20T15:49:10;15.30;99.90
18597;DHT22;9428;50.950;6.912;2022-09-20T15:51:57;15.40;99.90
18597;DHT22;9428;50.950;6.912;2022-09-20T15:54:45;15.40;99.90
18597;DHT22;9428;50.950;6.912;2022-09-20T15:57:33;15.40;99.90
18597;DHT22;9428;50.950;6.912;2022-09-20T16:00:20;15.50;99.90
18597;DHT22;9428;50.950;6.912;2022-09-20T16:03:09;15.40;99.90
18597;DHT22;9428;50.950;6.912;2022-09-20T16:05:57;15.30;99.90
18597;DHT22;9428;50.950;6.912;2022-09-20T16:08:45;15.40;99.90
18597;DHT22;9428;50.950;6.912;2022-09-20T16:11:33;15.40;99.90
18597;DHT22;9428;50.950;6.912;2022-09-20T16:14:20;15.40;99.90
18597;DHT22;9428;50.950;6.912;2022-09-20T16:17:07;15.40;99.90
18597;DHT22;9428;50.950;6.912;2022-09-20T16:19:56;15.50;99.90
18597;DHT22;9428;50.950;6.912;2022-09-20T16:22:43;15.40;99.90
18597;DHT22;9428;50.950;6.912;2022-09-20T16:25:31;15.60;99.90
18597;DHT22;9428;50.950;6.912;2022-09-20T16:28:19;16.20;99.90
18597;DHT22;9428;50.950;6.912;2022-09-20T16:31:22;15.60;99.90
18597;DHT22;9428;50.950;6.912;2022-09-20T16:34:16;15.60;99.90
18597;DHT22;9428;50.950;6.912;2022-09-20T16:37:08;15.60;99.90
18597;DHT22;9428;50.950;6.912;2022-09-20T16:39:56;15.50;99.90
18597;DHT22;9428;50.950;6.912;2022-09-20T16:42:43;15.50;99.90
18597;DHT22;9428;50.950;6.912;2022-09-20T16:45:32;15.50;99.90
18597;DHT22;9428;50.950;6.912;2022-09-20T16:48:19;15.80;99.90
18597;DHT22;9428;50.950;6.912;2022-09-20T16:51:06;15.70;99.90
18597;DHT22;9428;50.950;6.912;2022-09-20T16:53:55;15.50;99.90
18597;DHT22;9428;50.950;6.912;2022-09-20T16:56:43;15.50;99.90
18597;DHT22;9428;50.950;6.912;2022-09-20T16:59:31;15.50;99.90
18597;DHT22;9428;50.950;6.912;2022-09-20T17:02:18;15.50;99.90
18597;DHT22;9428;50.950;6.912;2022-09-20T17:05:06;15.40;99.90
18597;DHT22;9428;50.950;6.912;2022-09-20T17:07:54;15.40;99.90
18597;DHT22;9428;50.950;6.912;2022-09-20T17:10:43;15.30;99.90
18597;DHT22;9428;50.950;6.912;2022-09-20T17:13:30;15.30;99.90
18597;DHT22;9428;50.950;6.912;2022-09-20T17:16:20;15.20;99.90
18597;DHT22;9428;50.950;6.912;2022-09-20T17:19:10;15.30;99.90
18597;DHT22;9428;50.950;6.912;2022-09-20T17:21:57;15.20;99.90
18597;DHT22;9428;50.950;6.912;2022-09-20T17:24:44;15.20;99.90
18597;DHT22;9428;50.950;6.912;2022-09-20T17:27:33;15.20;99.90
18597;DHT22;9428;50.950;6.912;2022-09-20T17:30:24;15.10;99.90
18597;DHT22;9428;50.950;6.912;2022-09-20T17:33:11;15.10;99.90
18597;DHT22;9428;50.950;6.912;2022-09-20T17:35:59;15.40;99.90
18597;DHT22;9428;50.950;6.912;2022-09-20T17:38:52;15.00;99.90
18597;DHT22;9428;50.950;6.912;2022-09-20T17:41:41;15.00;99.90
18597;DHT22;9428;50.950;6.912;2022-09-20T17:44:30;15.00;99.90
18597;DHT22;9428;50.950;6.912;2022-09-20T17:47:21;15.00;99.90
18597;DHT22;9428;50.950;6.912;2022-09-20T17:50:09;15.00;99.90
18597;DHT22;9428;50.950;6.912;2022-09-20T17:52:59;14.90;99.90
18597;DHT22;9428;50.950;6.912;2022-09-20T17:55:52;14.90;99.90
18597;DHT22;9428;50.950;6.912;2022-09-20T17:58:39;14.90;99.90
18597;DHT22;9428;50.950;6.912;2022-09-20T18:01:29;14.90;99.90
18597;DHT22;9428;50.950;6.912;2022-09-20T18:04:17;14.90;99.90
18597;DHT22;9428;50.950;6.912;2022-09-20T18:07:05;14.90;99.90
18597;DHT22;9428;50.950;6.912;2022-09-20T18:09:52;14.80;99.90
18597;DHT22;9428;50.950;6.912;2022-09-20T18:12:40;14.90;99.90
18597;DHT22;9428;50.950;6.912;2022-09-20T18:15:30;14.80;99.90
18597;DHT22;9428;50.950;6.912;2022-09-20T18:18:19;14.70;99.90
18597;DHT22;9428;50.950;6.912;2022-09-20T18:21:11;14.70;99.90
18597;DHT22;9428;50.950;6.912;2022-09-20T18:24:04;14.70;99.90
18597;DHT22;9428;50.950;6.912;2022-09-20T18:26:51;14.70;99.90
18597;DHT22;9428;50.950;6.912;2022-09-20T18:29:39;14.90;99.90
18597;DHT22;9428;50.950;6.912;2022-09-20T18:32:26;14.70;99.90
18597;DHT22;9428;50.950;6.912;2022-09-20T18:35:16;14.70;99.90
18597;DHT22;9428;50.950;6.912;2022-09-20T18:38:04;14.70;99.90
18597;DHT22;9428;50.950;6.912;2022-09-20T18:40:53;14.70;99.90
18597;DHT22;9428;50.950;6.912;2022-09-20T18:43:45;14.60;99.90
18597;DHT22;9428;50.950;6.912;2022-09-20T18:46:33;14.70;99.90
18597;DHT22;9428;50.950;6.912;2022-09-20T18:49:22;14.70;99.90
18597;DHT22;9428;50.950;6.912;2022-09-20T18:52:11;14.70;99.90
18597;DHT22;9428;50.950;6.912;2022-09-20T18:54:59;14.70;99.90
18597;DHT22;9428;50.950;6.912;2022-09-20T18:57:51;14.70;99.90
18597;DHT22;9428;50.950;6.912;2022-09-20T19:00:38;14.60;99.90
18597;DHT22;9428;50.950;6.912;2022-09-20T19:03:36;14.60;99.90
18597;DHT22;9428;50.950;6.912;2022-09-20T19:06:30;14.60;99.90
18597;DHT22;9428;50.950;6.912;2022-09-20T19:09:25;14.60;99.90
18597;DHT22;9428;50.950;6.912;2022-09-20T19:12:24;14.70;99.90
18597;DHT22;9428;50.950;6.912;2022-09-20T19:15:25;14.50;99.90
18597;DHT22;9428;50.950;6.912;2022-09-20T19:18:42;14.60;99.90
18597;DHT22;9428;50.950;6.912;2022-09-20T19:21:37;14.60;99.90
18597;DHT22;9428;50.950;6.912;2022-09-20T19:24:40;14.50;99.90